Terminal Aerodrome Forecast
Issued by NWS

Home | Current Version | Previous Version | Text Only | Print | Product List | Glossary Off
Versions: 1 2 3 4 5 6 7 8 9 10 11 12

000
FTUS43 KGRB 301727
TAFAUW
TAF
KAUW 301727Z 3018/3118 04010G17KT P6SM SCT025 BKN100
      TEMPO 3018/3022 BKN025
     FM302200 02008KT P6SM BKN250
     FM310400 02005KT P6SM SCT250=

USA.gov is the U.S. government's official web portal to all federal, state and local government web resources and services.